sensor_id;sensor_type;location;lat;lon;timestamp;pressure;altitude;pressure_sealevel;temperature;humidity
36190;BME280;22232;50.914;13.858;2023-02-04T00:00:21;97944.00;;;3.32;100.00
36190;BME280;22232;50.914;13.858;2023-02-04T00:02:49;97944.38;;;3.29;100.00
36190;BME280;22232;50.914;13.858;2023-02-04T00:05:17;97947.81;;;3.30;100.00
36190;BME280;22232;50.914;13.858;2023-02-04T00:07:46;97980.63;;;3.27;100.00
36190;BME280;22232;50.914;13.858;2023-02-04T00:10:13;98018.44;;;3.34;100.00
36190;BME280;22232;50.914;13.858;2023-02-04T00:12:41;98051.97;;;2.80;100.00
36190;BME280;22232;50.914;13.858;2023-02-04T00:15:08;98045.38;;;2.29;100.00
36190;BME280;22232;50.914;13.858;2023-02-04T00:17:37;98038.66;;;2.19;100.00
36190;BME280;22232;50.914;13.858;2023-02-04T00:20:05;98064.84;;;2.12;100.00
36190;BME280;22232;50.914;13.858;2023-02-04T00:22:33;98083.38;;;2.27;100.00
36190;BME280;22232;50.914;13.858;2023-02-04T00:25:00;98078.47;;;2.24;100.00
36190;BME280;22232;50.914;13.858;2023-02-04T00:27:28;98086.69;;;2.29;100.00
36190;BME280;22232;50.914;13.858;2023-02-04T00:29:55;98084.03;;;2.29;100.00
36190;BME280;22232;50.914;13.858;2023-02-04T00:32:24;98117.63;;;2.19;100.00
36190;BME280;22232;50.914;13.858;2023-02-04T00:34:53;98108.28;;;2.16;100.00
36190;BME280;22232;50.914;13.858;2023-02-04T00:37:21;98126.16;;;2.21;100.00
36190;BME280;22232;50.914;13.858;2023-02-04T00:39:49;98137.03;;;2.18;100.00
36190;BME280;22232;50.914;13.858;2023-02-04T00:42:17;98146.75;;;2.09;100.00
36190;BME280;22232;50.914;13.858;2023-02-04T00:44:44;98156.97;;;2.04;100.00
36190;BME280;22232;50.914;13.858;2023-02-04T00:47:12;98162.06;;;1.97;100.00
36190;BME280;22232;50.914;13.858;2023-02-04T00:49:40;98170.47;;;1.84;100.00
36190;BME280;22232;50.914;13.858;2023-02-04T00:52:07;98172.13;;;1.69;100.00
36190;BME280;22232;50.914;13.858;2023-02-04T00:54:35;98180.03;;;1.69;100.00
36190;BME280;22232;50.914;13.858;2023-02-04T00:57:03;98217.31;;;1.56;100.00
36190;BME280;22232;50.914;13.858;2023-02-04T00:59:30;98217.31;;;1.56;100.00
36190;BME280;22232;50.914;13.858;2023-02-04T01:01:58;98235.03;;;1.38;100.00
36190;BME280;22232;50.914;13.858;2023-02-04T01:04:28;98234.72;;;1.41;100.00
36190;BME280;22232;50.914;13.858;2023-02-04T01:06:56;98233.72;;;1.34;100.00
36190;BME280;22232;50.914;13.858;2023-02-04T01:09:23;98255.25;;;1.37;100.00
36190;BME280;22232;50.914;13.858;2023-02-04T01:11:51;98262.97;;;1.31;100.00
36190;BME280;22232;50.914;13.858;2023-02-04T01:14:19;98269.84;;;1.32;100.00
36190;BME280;22232;50.914;13.858;2023-02-04T01:16:46;98276.59;;;1.34;100.00
36190;BME280;22232;50.914;13.858;2023-02-04T01:19:15;98285.94;;;1.29;100.00
36190;BME280;22232;50.914;13.858;2023-02-04T01:21:43;98277.09;;;1.38;100.00
36190;BME280;22232;50.914;13.858;2023-02-04T01:24:10;98281.03;;;1.34;100.00
36190;BME280;22232;50.914;13.858;2023-02-04T01:26:56;98299.75;;;1.31;100.00
36190;BME280;22232;50.914;13.858;2023-02-04T01:29:24;98312.41;;;1.35;100.00
36190;BME280;22232;50.914;13.858;2023-02-04T01:31:51;98317.84;;;1.34;100.00
36190;BME280;22232;50.914;13.858;2023-02-04T01:34:19;98308.41;;;1.23;100.00
36190;BME280;22232;50.914;13.858;2023-02-04T01:36:47;98328.31;;;1.26;100.00
36190;BME280;22232;50.914;13.858;2023-02-04T01:39:16;98331.56;;;1.20;100.00
36190;BME280;22232;50.914;13.858;2023-02-04T01:41:46;98348.50;;;1.25;100.00
36190;BME280;22232;50.914;13.858;2023-02-04T01:44:13;98357.97;;;1.10;100.00
36190;BME280;22232;50.914;13.858;2023-02-04T01:46:41;98346.09;;;0.98;100.00
36190;BME280;22232;50.914;13.858;2023-02-04T01:49:10;98361.03;;;1.05;100.00
36190;BME280;22232;50.914;13.858;2023-02-04T01:51:37;98373.81;;;1.00;100.00
36190;BME280;22232;50.914;13.858;2023-02-04T01:54:09;98382.88;;;1.06;100.00
36190;BME280;22232;50.914;13.858;2023-02-04T01:56:40;98378.28;;;0.74;100.00
36190;BME280;22232;50.914;13.858;2023-02-04T01:59:14;98394.25;;;0.62;100.00
36190;BME280;22232;50.914;13.858;2023-02-04T02:01:47;98400.94;;;0.57;100.00
36190;BME280;22232;50.914;13.858;2023-02-04T02:04:17;98413.56;;;0.35;100.00
36190;BME280;22232;50.914;13.858;2023-02-04T02:06:55;98415.06;;;0.38;100.00
36190;BME280;22232;50.914;13.858;2023-02-04T02:09:26;98435.75;;;0.41;100.00
36190;BME280;22232;50.914;13.858;2023-02-04T02:11:53;98440.78;;;0.34;100.00
36190;BME280;22232;50.914;13.858;2023-02-04T02:14:21;98443.63;;;0.41;100.00
36190;BME280;22232;50.914;13.858;2023-02-04T02:16:49;98437.00;;;0.55;100.00
36190;BME280;22232;50.914;13.858;2023-02-04T02:19:24;98446.75;;;0.62;100.00
36190;BME280;22232;50.914;13.858;2023-02-04T02:22:29;98451.72;;;0.65;100.00
36190;BME280;22232;50.914;13.858;2023-02-04T02:24:59;98467.59;;;0.64;100.00
36190;BME280;22232;50.914;13.858;2023-02-04T02:27:27;98484.13;;;0.56;100.00
36190;BME280;22232;50.914;13.858;2023-02-04T02:29:57;98485.31;;;0.62;100.00
36190;BME280;22232;50.914;13.858;2023-02-04T02:32:24;98480.06;;;0.62;100.00
36190;BME280;22232;50.914;13.858;2023-02-04T02:34:52;98493.84;;;0.64;100.00
36190;BME280;22232;50.914;13.858;2023-02-04T02:37:20;98518.47;;;0.63;100.00
36190;BME280;22232;50.914;13.858;2023-02-04T02:39:47;98521.78;;;0.65;100.00
36190;BME280;22232;50.914;13.858;2023-02-04T02:42:16;98534.38;;;0.61;100.00
36190;BME280;22232;50.914;13.858;2023-02-04T02:44:47;98539.84;;;0.68;100.00
36190;BME280;22232;50.914;13.858;2023-02-04T02:47:18;98555.72;;;0.66;100.00
36190;BME280;22232;50.914;13.858;2023-02-04T02:49:51;98576.09;;;0.64;100.00
36190;BME280;22232;50.914;13.858;2023-02-04T02:52:19;98584.78;;;0.65;100.00
36190;BME280;22232;50.914;13.858;2023-02-04T02:54:47;98574.19;;;0.57;100.00
36190;BME280;22232;50.914;13.858;2023-02-04T02:57:19;98582.06;;;0.57;100.00
36190;BME280;22232;50.914;13.858;2023-02-04T02:59:48;98588.94;;;0.58;100.00
36190;BME280;22232;50.914;13.858;2023-02-04T03:02:18;98583.28;;;0.62;100.00
36190;BME280;22232;50.914;13.858;2023-02-04T03:04:52;98602.47;;;0.63;100.00
36190;BME280;22232;50.914;13.858;2023-02-04T03:07:24;98603.97;;;0.65;100.00
36190;BME280;22232;50.914;13.858;2023-02-04T03:09:52;98608.47;;;0.55;100.00
36190;BME280;22232;50.914;13.858;2023-02-04T03:12:20;98612.84;;;0.64;100.00
36190;BME280;22232;50.914;13.858;2023-02-04T03:14:48;98620.03;;;0.62;100.00
36190;BME280;22232;50.914;13.858;2023-02-04T03:17:16;98623.03;;;0.67;100.00
36190;BME280;22232;50.914;13.858;2023-02-04T03:19:45;98638.41;;;0.62;100.00
36190;BME280;22232;50.914;13.858;2023-02-04T03:22:13;98660.50;;;0.60;100.00
36190;BME280;22232;50.914;13.858;2023-02-04T03:24:41;98677.31;;;0.39;100.00
36190;BME280;22232;50.914;13.858;2023-02-04T03:27:09;98682.47;;;0.31;100.00
36190;BME280;22232;50.914;13.858;2023-02-04T03:29:43;98683.25;;;0.41;100.00
36190;BME280;22232;50.914;13.858;2023-02-04T03:32:11;98686.28;;;0.47;100.00
36190;BME280;22232;50.914;13.858;2023-02-04T03:34:39;98689.16;;;0.53;100.00
36190;BME280;22232;50.914;13.858;2023-02-04T03:37:06;98696.88;;;0.55;100.00
36190;BME280;22232;50.914;13.858;2023-02-04T03:39:34;98700.72;;;0.60;100.00
36190;BME280;22232;50.914;13.858;2023-02-04T03:42:02;98714.94;;;0.58;100.00
36190;BME280;22232;50.914;13.858;2023-02-04T03:44:29;98728.94;;;0.58;100.00
36190;BME280;22232;50.914;13.858;2023-02-04T03:46:57;98741.94;;;0.50;100.00
36190;BME280;22232;50.914;13.858;2023-02-04T03:49:26;98746.38;;;0.50;100.00
36190;BME280;22232;50.914;13.858;2023-02-04T03:51:54;98748.75;;;0.43;100.00
36190;BME280;22232;50.914;13.858;2023-02-04T03:54:22;98759.25;;;0.23;100.00
36190;BME280;22232;50.914;13.858;2023-02-04T03:56:49;98773.38;;;-0.07;100.00
36190;BME280;22232;50.914;13.858;2023-02-04T03:59:17;98794.09;;;-0.42;100.00
36190;BME280;22232;50.914;13.858;2023-02-04T04:01:44;98802.47;;;-0.58;100.00
36190;BME280;22232;50.914;13.858;2023-02-04T04:04:12;98800.56;;;-0.56;100.00
36190;BME280;22232;50.914;13.858;2023-02-04T04:06:39;98809.38;;;-0.57;100.00
36190;BME280;22232;50.914;13.858;2023-02-04T04:09:07;98828.28;;;-0.63;100.00
36190;BME280;22232;50.914;13.858;2023-02-04T04:11:34;98823.44;;;-0.58;100.00
36190;BME280;22232;50.914;13.858;2023-02-04T04:14:02;98835.59;;;-0.57;100.00
36190;BME280;22232;50.914;13.858;2023-02-04T04:16:30;98840.97;;;-0.49;100.00
36190;BME280;22232;50.914;13.858;2023-02-04T04:18:57;98853.13;;;-0.38;100.00
36190;BME280;22232;50.914;13.858;2023-02-04T04:21:25;98860.03;;;-0.37;100.00
36190;BME280;22232;50.914;13.858;2023-02-04T04:23:52;98867.91;;;-0.28;100.00
36190;BME280;22232;50.914;13.858;2023-02-04T04:26:20;98859.09;;;-0.27;100.00
36190;BME280;22232;50.914;13.858;2023-02-04T04:28:47;98879.81;;;-0.24;100.00
36190;BME280;22232;50.914;13.858;2023-02-04T04:31:15;98883.63;;;-0.28;100.00
36190;BME280;22232;50.914;13.858;2023-02-04T04:33:43;98900.06;;;-0.35;100.00
36190;BME280;22232;50.914;13.858;2023-02-04T04:36:10;98896.34;;;-0.33;100.00
36190;BME280;22232;50.914;13.858;2023-02-04T04:38:38;98900.88;;;-0.35;100.00
36190;BME280;22232;50.914;13.858;2023-02-04T04:41:05;98916.78;;;-0.27;100.00
36190;BME280;22232;50.914;13.858;2023-02-04T04:43:33;98914.69;;;-0.23;100.00
36190;BME280;22232;50.914;13.858;2023-02-04T04:46:00;98925.72;;;-0.29;100.00
36190;BME280;22232;50.914;13.858;2023-02-04T04:48:28;98939.81;;;-0.30;100.00
36190;BME280;22232;50.914;13.858;2023-02-04T04:50:55;98948.09;;;-0.25;100.00
36190;BME280;22232;50.914;13.858;2023-02-04T04:53:24;98944.19;;;-0.31;100.00
36190;BME280;22232;50.914;13.858;2023-02-04T04:55:51;98948.22;;;-0.27;100.00
36190;BME280;22232;50.914;13.858;2023-02-04T04:58:19;98952.47;;;-0.35;100.00
36190;BME280;22232;50.914;13.858;2023-02-04T05:00:47;98961.88;;;-0.33;100.00
36190;BME280;22232;50.914;13.858;2023-02-04T05:03:14;98969.47;;;-0.30;100.00
36190;BME280;22232;50.914;13.858;2023-02-04T05:05:42;98967.22;;;-0.34;100.00
36190;BME280;22232;50.914;13.858;2023-02-04T05:08:10;98971.38;;;-0.32;100.00
36190;BME280;22232;50.914;13.858;2023-02-04T05:10:40;98981.88;;;-0.32;100.00
36190;BME280;22232;50.914;13.858;2023-02-04T05:13:08;98991.66;;;-0.34;100.00
36190;BME280;22232;50.914;13.858;2023-02-04T05:15:36;98994.69;;;-0.38;100.00
36190;BME280;22232;50.914;13.858;2023-02-04T05:18:04;99000.19;;;-0.41;100.00
36190;BME280;22232;50.914;13.858;2023-02-04T05:20:31;98998.84;;;-0.36;100.00
36190;BME280;22232;50.914;13.858;2023-02-04T05:22:59;99008.06;;;-0.41;100.00
36190;BME280;22232;50.914;13.858;2023-02-04T05:25:29;99013.41;;;-0.43;100.00
36190;BME280;22232;50.914;13.858;2023-02-04T05:27:56;99021.28;;;-0.43;100.00
36190;BME280;22232;50.914;13.858;2023-02-04T05:30:24;99020.97;;;-0.50;100.00
36190;BME280;22232;50.914;13.858;2023-02-04T05:36:58;99032.00;;;-0.46;100.00
36190;BME280;22232;50.914;13.858;2023-02-04T05:39:26;99038.50;;;-0.50;100.00
36190;BME280;22232;50.914;13.858;2023-02-04T05:41:54;99046.22;;;-0.49;100.00
36190;BME280;22232;50.914;13.858;2023-02-04T05:44:21;99051.22;;;-0.45;100.00
36190;BME280;22232;50.914;13.858;2023-02-04T05:46:49;99054.78;;;-0.47;100.00
36190;BME280;22232;50.914;13.858;2023-02-04T05:49:16;99066.09;;;-0.46;100.00
36190;BME280;22232;50.914;13.858;2023-02-04T05:51:44;99060.59;;;-0.43;100.00
36190;BME280;22232;50.914;13.858;2023-02-04T05:54:11;99077.69;;;-0.49;100.00
36190;BME280;22232;50.914;13.858;2023-02-04T05:56:46;99082.66;;;-0.45;100.00
36190;BME280;22232;50.914;13.858;2023-02-04T05:59:13;99087.06;;;-0.46;100.00
36190;BME280;22232;50.914;13.858;2023-02-04T06:01:41;99094.41;;;-0.40;100.00
36190;BME280;22232;50.914;13.858;2023-02-04T06:04:09;99094.41;;;-0.40;100.00
36190;BME280;22232;50.914;13.858;2023-02-04T06:06:36;99112.63;;;-0.38;100.00
36190;BME280;22232;50.914;13.858;2023-02-04T06:09:04;99108.63;;;-0.42;100.00
36190;BME280;22232;50.914;13.858;2023-02-04T06:11:31;99123.50;;;-0.43;100.00
36190;BME280;22232;50.914;13.858;2023-02-04T06:13:59;99121.38;;;-0.49;100.00
36190;BME280;22232;50.914;13.858;2023-02-04T06:16:26;99130.63;;;-0.55;100.00
36190;BME280;22232;50.914;13.858;2023-02-04T06:18:54;99138.22;;;-0.52;100.00
36190;BME280;22232;50.914;13.858;2023-02-04T06:21:21;99145.47;;;-0.55;100.00
36190;BME280;22232;50.914;13.858;2023-02-04T06:23:50;99152.19;;;-0.62;100.00
36190;BME280;22232;50.914;13.858;2023-02-04T06:26:18;99155.19;;;-0.67;100.00
36190;BME280;22232;50.914;13.858;2023-02-04T06:28:45;99166.75;;;-0.70;100.00
36190;BME280;22232;50.914;13.858;2023-02-04T06:31:13;99173.16;;;-0.62;100.00
36190;BME280;22232;50.914;13.858;2023-02-04T06:33:40;99174.38;;;-0.66;100.00
36190;BME280;22232;50.914;13.858;2023-02-04T06:36:08;99188.47;;;-0.79;100.00
36190;BME280;22232;50.914;13.858;2023-02-04T06:38:35;99198.25;;;-0.92;100.00
36190;BME280;22232;50.914;13.858;2023-02-04T06:41:03;99193.00;;;-0.81;100.00
36190;BME280;22232;50.914;13.858;2023-02-04T06:43:30;99197.66;;;-0.84;100.00
36190;BME280;22232;50.914;13.858;2023-02-04T06:45:58;99207.66;;;-0.89;100.00
36190;BME280;22232;50.914;13.858;2023-02-04T06:48:25;99206.84;;;-0.90;100.00
36190;BME280;22232;50.914;13.858;2023-02-04T06:50:53;99210.28;;;-0.89;100.00
36190;BME280;22232;50.914;13.858;2023-02-04T06:53:21;99217.81;;;-0.96;100.00
36190;BME280;22232;50.914;13.858;2023-02-04T06:55:48;99229.59;;;-0.90;100.00
36190;BME280;22232;50.914;13.858;2023-02-04T06:58:16;99231.97;;;-0.99;100.00
36190;BME280;22232;50.914;13.858;2023-02-04T07:00:43;99240.63;;;-0.87;100.00
36190;BME280;22232;50.914;13.858;2023-02-04T07:03:11;99241.59;;;-0.88;100.00
36190;BME280;22232;50.914;13.858;2023-02-04T07:05:38;99251.94;;;-0.75;100.00
36190;BME280;22232;50.914;13.858;2023-02-04T07:08:06;99253.56;;;-0.63;100.00
36190;BME280;22232;50.914;13.858;2023-02-04T07:10:33;99260.16;;;-0.36;100.00
36190;BME280;22232;50.914;13.858;2023-02-04T07:13:01;99266.66;;;-0.31;100.00
36190;BME280;22232;50.914;13.858;2023-02-04T07:15:28;99275.25;;;-0.40;100.00
36190;BME280;22232;50.914;13.858;2023-02-04T07:17:57;99278.69;;;-0.60;100.00
36190;BME280;22232;50.914;13.858;2023-02-04T07:20:25;99279.50;;;-0.60;100.00
36190;BME280;22232;50.914;13.858;2023-02-04T07:22:53;99295.25;;;-0.71;100.00
36190;BME280;22232;50.914;13.858;2023-02-04T07:25:20;99291.91;;;-0.73;100.00
36190;BME280;22232;50.914;13.858;2023-02-04T07:27:48;99293.72;;;-0.74;100.00
36190;BME280;22232;50.914;13.858;2023-02-04T07:30:15;99299.44;;;-0.80;100.00
36190;BME280;22232;50.914;13.858;2023-02-04T07:32:43;99291.22;;;-0.75;100.00
36190;BME280;22232;50.914;13.858;2023-02-04T07:35:10;99304.22;;;-0.85;100.00
36190;BME280;22232;50.914;13.858;2023-02-04T07:37:38;99305.53;;;-0.90;100.00
36190;BME280;22232;50.914;13.858;2023-02-04T07:40:06;99309.91;;;-0.80;100.00
36190;BME280;22232;50.914;13.858;2023-02-04T07:42:34;99310.41;;;-0.86;100.00
36190;BME280;22232;50.914;13.858;2023-02-04T07:45:09;99308.50;;;-0.95;100.00
36190;BME280;22232;50.914;13.858;2023-02-04T07:47:37;99319.69;;;-0.93;100.00
36190;BME280;22232;50.914;13.858;2023-02-04T07:50:04;99317.44;;;-0.86;100.00
36190;BME280;22232;50.914;13.858;2023-02-04T07:52:32;99332.41;;;-0.77;100.00
36190;BME280;22232;50.914;13.858;2023-02-04T07:55:00;99324.06;;;-0.71;100.00
36190;BME280;22232;50.914;13.858;2023-02-04T07:57:27;99335.75;;;-0.64;100.00
36190;BME280;22232;50.914;13.858;2023-02-04T07:59:56;99331.78;;;-0.58;100.00
36190;BME280;22232;50.914;13.858;2023-02-04T08:02:24;99338.91;;;-0.49;100.00
36190;BME280;22232;50.914;13.858;2023-02-04T08:04:52;99347.50;;;-0.47;100.00
36190;BME280;22232;50.914;13.858;2023-02-04T08:07:19;99339.38;;;-0.33;100.00
36190;BME280;22232;50.914;13.858;2023-02-04T08:09:46;99362.00;;;-0.32;100.00
36190;BME280;22232;50.914;13.858;2023-02-04T08:12:14;99367.72;;;-0.27;100.00
36190;BME280;22232;50.914;13.858;2023-02-04T08:14:41;99369.25;;;-0.24;100.00
36190;BME280;22232;50.914;13.858;2023-02-04T08:17:09;99376.50;;;-0.16;100.00
36190;BME280;22232;50.914;13.858;2023-02-04T08:19:36;99374.63;;;-0.26;100.00
36190;BME280;22232;50.914;13.858;2023-02-04T08:22:04;99380.81;;;-0.27;100.00
36190;BME280;22232;50.914;13.858;2023-02-04T08:24:32;99392.25;;;-0.28;100.00
36190;BME280;22232;50.914;13.858;2023-02-04T08:27:00;99386.16;;;-0.17;100.00
36190;BME280;22232;50.914;13.858;2023-02-04T08:29:27;99386.25;;;-0.07;100.00
36190;BME280;22232;50.914;13.858;2023-02-04T08:31:55;99386.81;;;-0.04;100.00
36190;BME280;22232;50.914;13.858;2023-02-04T08:34:22;99387.66;;;-0.03;100.00
36190;BME280;22232;50.914;13.858;2023-02-04T08:36:50;99405.91;;;-0.02;100.00
36190;BME280;22232;50.914;13.858;2023-02-04T08:39:17;99401.81;;;0.06;100.00
36190;BME280;22232;50.914;13.858;2023-02-04T08:41:45;99405.88;;;0.10;100.00
36190;BME280;22232;50.914;13.858;2023-02-04T08:44:12;99406.91;;;0.18;100.00
36190;BME280;22232;50.914;13.858;2023-02-04T08:46:40;99413.00;;;0.19;100.00
36190;BME280;22232;50.914;13.858;2023-02-04T08:49:07;99417.59;;;0.27;100.00
36190;BME280;22232;50.914;13.858;2023-02-04T08:51:35;99429.81;;;0.16;100.00
36190;BME280;22232;50.914;13.858;2023-02-04T08:54:03;99428.16;;;0.15;100.00
36190;BME280;22232;50.914;13.858;2023-02-04T08:56:30;99422.41;;;0.21;100.00
36190;BME280;22232;50.914;13.858;2023-02-04T08:58:58;99435.88;;;0.17;100.00
36190;BME280;22232;50.914;13.858;2023-02-04T09:01:25;99430.53;;;0.18;100.00
36190;BME280;22232;50.914;13.858;2023-02-04T09:03:53;99432.50;;;0.26;100.00
36190;BME280;22232;50.914;13.858;2023-02-04T09:06:20;99444.16;;;0.33;100.00
36190;BME280;22232;50.914;13.858;2023-02-04T09:08:47;99442.91;;;0.28;100.00
36190;BME280;22232;50.914;13.858;2023-02-04T09:11:15;99443.09;;;0.36;100.00
36190;BME280;22232;50.914;13.858;2023-02-04T09:13:42;99453.09;;;0.42;100.00
36190;BME280;22232;50.914;13.858;2023-02-04T09:16:10;99456.78;;;0.39;100.00
36190;BME280;22232;50.914;13.858;2023-02-04T09:18:37;99452.09;;;0.54;100.00
36190;BME280;22232;50.914;13.858;2023-02-04T09:21:05;99462.78;;;0.62;100.00
36190;BME280;22232;50.914;13.858;2023-02-04T09:23:32;99457.59;;;0.51;100.00
36190;BME280;22232;50.914;13.858;2023-02-04T09:26:00;99461.50;;;0.57;100.00
36190;BME280;22232;50.914;13.858;2023-02-04T09:28:27;99462.66;;;0.64;100.00
36190;BME280;22232;50.914;13.858;2023-02-04T09:30:55;99473.16;;;0.64;100.00
36190;BME280;22232;50.914;13.858;2023-02-04T09:33:22;99469.13;;;0.60;100.00
36190;BME280;22232;50.914;13.858;2023-02-04T09:35:50;99481.13;;;0.74;100.00
36190;BME280;22232;50.914;13.858;2023-02-04T09:38:17;99486.88;;;0.67;100.00
36190;BME280;22232;50.914;13.858;2023-02-04T09:40:48;99496.56;;;0.67;100.00
36190;BME280;22232;50.914;13.858;2023-02-04T09:43:38;99502.19;;;0.62;100.00
36190;BME280;22232;50.914;13.858;2023-02-04T09:46:17;99504.41;;;0.46;100.00
36190;BME280;22232;50.914;13.858;2023-02-04T09:48:46;99508.59;;;0.37;100.00
36190;BME280;22232;50.914;13.858;2023-02-04T09:51:26;99510.34;;;0.48;100.00
36190;BME280;22232;50.914;13.858;2023-02-04T09:54:02;99513.03;;;0.58;100.00
36190;BME280;22232;50.914;13.858;2023-02-04T09:56:32;99515.34;;;0.51;100.00
36190;BME280;22232;50.914;13.858;2023-02-04T09:58:59;99519.47;;;0.65;100.00
36190;BME280;22232;50.914;13.858;2023-02-04T10:01:27;99521.38;;;0.63;100.00
36190;BME280;22232;50.914;13.858;2023-02-04T10:03:59;99518.75;;;0.63;100.00
36190;BME280;22232;50.914;13.858;2023-02-04T10:06:27;99528.38;;;0.41;100.00
36190;BME280;22232;50.914;13.858;2023-02-04T10:08:55;99525.97;;;0.50;100.00
36190;BME280;22232;50.914;13.858;2023-02-04T10:11:25;99537.41;;;0.60;100.00
36190;BME280;22232;50.914;13.858;2023-02-04T10:13:54;99533.44;;;0.65;100.00
36190;BME280;22232;50.914;13.858;2023-02-04T10:16:31;99523.41;;;0.71;100.00
36190;BME280;22232;50.914;13.858;2023-02-04T10:19:01;99530.44;;;0.70;100.00
36190;BME280;22232;50.914;13.858;2023-02-04T10:21:31;99520.44;;;0.85;100.00
36190;BME280;22232;50.914;13.858;2023-02-04T10:24:02;99528.19;;;0.98;100.00
36190;BME280;22232;50.914;13.858;2023-02-04T10:26:31;99532.28;;;1.11;100.00
36190;BME280;22232;50.914;13.858;2023-02-04T10:29:01;99529.94;;;1.39;100.00
36190;BME280;22232;50.914;13.858;2023-02-04T10:31:45;99521.13;;;1.40;100.00
36190;BME280;22232;50.914;13.858;2023-02-04T10:34:19;99540.34;;;1.20;100.00
36190;BME280;22232;50.914;13.858;2023-02-04T10:36:52;99531.03;;;1.15;100.00
36190;BME280;22232;50.914;13.858;2023-02-04T10:39:21;99527.78;;;1.02;100.00
36190;BME280;22232;50.914;13.858;2023-02-04T10:44:24;99549.88;;;1.00;100.00
36190;BME280;22232;50.914;13.858;2023-02-04T10:47:26;99551.69;;;1.20;100.00
36190;BME280;22232;50.914;13.858;2023-02-04T10:52:21;99538.91;;;1.57;100.00
36190;BME280;22232;50.914;13.858;2023-02-04T10:54:50;99540.97;;;1.54;100.00
36190;BME280;22232;50.914;13.858;2023-02-04T10:57:23;99545.59;;;1.62;100.00
36190;BME280;22232;50.914;13.858;2023-02-04T10:59:55;99537.81;;;1.60;100.00
36190;BME280;22232;50.914;13.858;2023-02-04T11:02:40;99544.03;;;1.80;100.00
36190;BME280;22232;50.914;13.858;2023-02-04T11:05:13;99549.22;;;1.70;100.00
36190;BME280;22232;50.914;13.858;2023-02-04T11:07:42;99546.94;;;1.87;100.00
36190;BME280;22232;50.914;13.858;2023-02-04T11:10:15;99554.34;;;2.02;100.00
36190;BME280;22232;50.914;13.858;2023-02-04T11:13:23;99554.22;;;2.04;100.00
36190;BME280;22232;50.914;13.858;2023-02-04T11:20:49;99561.16;;;1.74;100.00
36190;BME280;22232;50.914;13.858;2023-02-04T11:26:05;99562.84;;;1.85;100.00
36190;BME280;22232;50.914;13.858;2023-02-04T11:33:50;99561.00;;;1.76;100.00
36190;BME280;22232;50.914;13.858;2023-02-04T11:36:29;99563.13;;;1.82;100.00
36190;BME280;22232;50.914;13.858;2023-02-04T11:39:06;99564.28;;;1.89;100.00
36190;BME280;22232;50.914;13.858;2023-02-04T11:41:34;99567.19;;;1.96;100.00
36190;BME280;22232;50.914;13.858;2023-02-04T11:44:02;99565.59;;;2.14;100.00
36190;BME280;22232;50.914;13.858;2023-02-04T11:46:29;99569.72;;;2.47;100.00
36190;BME280;22232;50.914;13.858;2023-02-04T11:48:57;99570.56;;;2.67;100.00
36190;BME280;22232;50.914;13.858;2023-02-04T11:51:29;99566.63;;;2.33;100.00
36190;BME280;22232;50.914;13.858;2023-02-04T11:53:57;99567.47;;;2.43;100.00
36190;BME280;22232;50.914;13.858;2023-02-04T11:56:28;99567.19;;;2.46;100.00
36190;BME280;22232;50.914;13.858;2023-02-04T11:58:57;99572.00;;;2.31;100.00
36190;BME280;22232;50.914;13.858;2023-02-04T12:01:31;99568.34;;;2.13;100.00
36190;BME280;22232;50.914;13.858;2023-02-04T12:04:01;99567.22;;;2.05;100.00
36190;BME280;22232;50.914;13.858;2023-02-04T12:06:31;99570.84;;;2.04;100.00
36190;BME280;22232;50.914;13.858;2023-02-04T12:09:23;99576.00;;;1.85;100.00
36190;BME280;22232;50.914;13.858;2023-02-04T12:11:53;99572.50;;;1.75;100.00
36190;BME280;22232;50.914;13.858;2023-02-04T12:14:33;99575.19;;;1.84;100.00
36190;BME280;22232;50.914;13.858;2023-02-04T12:17:15;99578.59;;;1.75;100.00
36190;BME280;22232;50.914;13.858;2023-02-04T12:19:43;99582.22;;;1.53;100.00
36190;BME280;22232;50.914;13.858;2023-02-04T12:22:11;99588.28;;;1.75;100.00
36190;BME280;22232;50.914;13.858;2023-02-04T12:24:40;99583.28;;;1.72;100.00
36190;BME280;22232;50.914;13.858;2023-02-04T12:27:09;99596.03;;;1.76;100.00
36190;BME280;22232;50.914;13.858;2023-02-04T12:29:36;99588.22;;;1.86;100.00
36190;BME280;22232;50.914;13.858;2023-02-04T12:32:04;99591.25;;;1.60;100.00
36190;BME280;22232;50.914;13.858;2023-02-04T12:34:31;99588.50;;;1.62;100.00
36190;BME280;22232;50.914;13.858;2023-02-04T12:36:59;99586.13;;;1.59;100.00
36190;BME280;22232;50.914;13.858;2023-02-04T12:39:27;99583.84;;;1.75;100.00
36190;BME280;22232;50.914;13.858;2023-02-04T12:41:55;99583.59;;;1.78;100.00
36190;BME280;22232;50.914;13.858;2023-02-04T12:44:22;99587.88;;;1.79;100.00
36190;BME280;22232;50.914;13.858;2023-02-04T12:46:50;99583.63;;;1.88;100.00
36190;BME280;22232;50.914;13.858;2023-02-04T12:49:17;99581.19;;;1.96;100.00
36190;BME280;22232;50.914;13.858;2023-02-04T12:51:45;99584.63;;;1.87;100.00
36190;BME280;22232;50.914;13.858;2023-02-04T12:54:12;99577.81;;;1.84;100.00
36190;BME280;22232;50.914;13.858;2023-02-04T12:56:40;99573.78;;;1.80;100.00
36190;BME280;22232;50.914;13.858;2023-02-04T12:59:07;99580.84;;;1.80;100.00
36190;BME280;22232;50.914;13.858;2023-02-04T13:01:35;99581.69;;;1.80;100.00
36190;BME280;22232;50.914;13.858;2023-02-04T13:04:03;99593.75;;;1.62;100.00
36190;BME280;22232;50.914;13.858;2023-02-04T13:06:30;99594.44;;;1.64;100.00
36190;BME280;22232;50.914;13.858;2023-02-04T13:08:58;99588.25;;;1.65;100.00
36190;BME280;22232;50.914;13.858;2023-02-04T13:11:25;99585.59;;;1.86;100.00
36190;BME280;22232;50.914;13.858;2023-02-04T13:13:53;99576.69;;;2.18;100.00
36190;BME280;22232;50.914;13.858;2023-02-04T13:16:20;99586.34;;;2.48;100.00